createdAt,value
2018-11-11T00:01:43.410Z,48.40
2018-11-11T00:04:12.396Z,43.07
2018-11-11T00:06:41.243Z,45.70
2018-11-11T00:09:10.414Z,46.07
2018-11-11T00:11:39.371Z,45.53
2018-11-11T00:14:08.230Z,45.50
2018-11-11T00:16:37.080Z,44.53
2018-11-11T00:19:06.432Z,45.63
2018-11-11T00:21:35.277Z,43.37
2018-11-11T00:24:04.118Z,41.47
2018-11-11T00:26:32.972Z,42.90
2018-11-11T00:29:01.819Z,43.23
2018-11-11T00:31:30.678Z,40.77
2018-11-11T00:34:00.390Z,42.27
2018-11-11T00:36:29.206Z,40.60
2018-11-11T00:38:58.047Z,40.43
2018-11-11T00:41:26.888Z,40.50
2018-11-11T00:43:55.747Z,39.60
2018-11-11T00:46:24.576Z,41.17
2018-11-11T00:48:53.454Z,41.60
2018-11-11T00:51:22.323Z,42.53
2018-11-11T00:53:51.157Z,46.10
2018-11-11T00:56:19.998Z,40.83
2018-11-11T00:58:48.891Z,40.10
2018-11-11T01:01:17.787Z,43.90
2018-11-11T01:03:46.646Z,42.00
2018-11-11T01:06:15.699Z,44.90
2018-11-11T01:08:44.699Z,44.13
2018-11-11T01:11:13.547Z,43.10
2018-11-11T01:13:42.395Z,43.67
2018-11-11T01:16:11.246Z,41.27
2018-11-11T01:18:40.082Z,40.83
2018-11-11T01:21:08.969Z,39.57
2018-11-11T01:23:37.803Z,41.43
2018-11-11T01:26:06.711Z,42.70
2018-11-11T01:28:35.578Z,38.60
2018-11-11T01:31:05.483Z,40.63
2018-11-11T01:33:34.381Z,37.87
2018-11-11T01:36:03.622Z,39.00
2018-11-11T01:38:32.475Z,36.60
2018-11-11T01:41:01.323Z,36.60
2018-11-11T01:43:30.194Z,38.00
2018-11-11T01:45:59.073Z,36.90
2018-11-11T01:48:27.924Z,35.77
2018-11-11T01:50:56.842Z,37.03
2018-11-11T01:53:25.714Z,37.67
2018-11-11T01:55:54.566Z,38.20
2018-11-11T01:58:23.414Z,40.43
2018-11-11T02:00:52.271Z,36.70
2018-11-11T02:03:21.101Z,37.30
2018-11-11T02:05:49.978Z,37.90
2018-11-11T02:08:18.870Z,36.90
2018-11-11T02:10:47.731Z,39.07
2018-11-11T02:13:16.603Z,39.50
2018-11-11T02:15:45.464Z,38.63
2018-11-11T02:18:14.409Z,37.50
2018-11-11T02:20:43.248Z,40.83
2018-11-11T02:23:12.128Z,39.87
2018-11-11T02:25:40.974Z,40.23
2018-11-11T02:28:09.842Z,39.50
2018-11-11T02:30:38.730Z,40.50
2018-11-11T02:33:08.583Z,38.97
2018-11-11T02:35:37.453Z,41.47
2018-11-11T02:38:06.375Z,38.60
2018-11-11T02:40:35.247Z,38.93
2018-11-11T02:43:04.130Z,40.00
2018-11-11T02:45:33.022Z,36.77
2018-11-11T02:48:01.890Z,39.53
2018-11-11T02:50:30.750Z,40.47
2018-11-11T02:52:59.629Z,40.50
2018-11-11T02:55:28.475Z,38.53
2018-11-11T02:57:57.370Z,39.70
2018-11-11T03:00:26.202Z,40.23
2018-11-11T03:02:55.146Z,42.03
2018-11-11T03:05:24.047Z,39.83
2018-11-11T03:07:52.930Z,40.70
2018-11-11T03:10:21.830Z,41.23
2018-11-11T03:12:51.353Z,40.13
2018-11-11T03:15:20.527Z,39.43
2018-11-11T03:17:49.338Z,41.30
2018-11-11T03:20:18.619Z,40.60
2018-11-11T03:22:47.508Z,39.50
2018-11-11T03:25:17.138Z,38.57
2018-11-11T03:27:46.048Z,38.53
2018-11-11T03:30:16.249Z,38.30
2018-11-11T03:32:45.117Z,37.33
2018-11-11T03:35:14.618Z,37.23
2018-11-11T03:37:44.230Z,36.97
2018-11-11T03:40:15.290Z,37.47
2018-11-11T03:42:44.296Z,38.43
2018-11-11T03:45:14.478Z,37.63
2018-11-11T03:47:44.188Z,38.40
2018-11-11T03:50:13.088Z,38.70
2018-11-11T03:52:42.182Z,38.47
2018-11-11T03:55:11.298Z,40.40
2018-11-11T03:57:40.156Z,38.87
2018-11-11T04:00:13.660Z,38.33
2018-11-11T04:02:42.519Z,37.03
2018-11-11T04:05:12.686Z,37.30
2018-11-11T04:07:41.662Z,37.20
2018-11-11T04:10:14.118Z,36.00
2018-11-11T04:13:46.418Z,35.60
2018-11-11T04:16:15.304Z,37.00
2018-11-11T04:18:44.234Z,38.50
2018-11-11T04:21:13.150Z,41.20
2018-11-11T04:23:42.013Z,38.73
2018-11-11T04:26:10.843Z,37.93
2018-11-11T04:28:39.721Z,41.47
2018-11-11T04:31:08.583Z,40.77
2018-11-11T04:33:37.439Z,39.57
2018-11-11T04:36:06.323Z,39.90
2018-11-11T04:38:35.166Z,38.00
2018-11-11T04:42:07.294Z,39.77
2018-11-11T04:44:36.173Z,39.37
2018-11-11T04:47:05.063Z,40.07
2018-11-11T04:49:33.954Z,37.00
2018-11-11T04:52:02.918Z,39.67
2018-11-11T04:54:31.854Z,38.90
2018-11-11T04:57:00.757Z,39.30
2018-11-11T04:59:29.650Z,38.17
2018-11-11T05:01:58.515Z,38.53
2018-11-11T05:04:27.444Z,39.40
2018-11-11T05:06:56.299Z,37.70
2018-11-11T05:09:25.154Z,39.07
2018-11-11T05:11:54.043Z,37.20
2018-11-11T05:14:22.935Z,35.10
2018-11-11T05:16:51.802Z,37.10
2018-11-11T05:19:20.649Z,38.70
2018-11-11T05:21:49.556Z,35.43
2018-11-11T05:24:18.398Z,35.10
2018-11-11T05:26:47.290Z,34.27
2018-11-11T05:29:16.184Z,35.00
2018-11-11T05:31:45.197Z,39.10
2018-11-11T05:34:14.196Z,37.57
2018-11-11T05:36:43.058Z,37.40
2018-11-11T05:39:13.207Z,38.67
2018-11-11T05:41:42.290Z,36.00
2018-11-11T05:44:11.287Z,37.87
2018-11-11T05:46:40.186Z,38.43
2018-11-11T05:49:09.079Z,38.47
2018-11-11T05:51:37.927Z,35.73
2018-11-11T05:54:06.759Z,37.53
2018-11-11T05:56:35.615Z,35.93
2018-11-11T05:59:04.731Z,35.73
2018-11-11T06:01:33.546Z,35.27
2018-11-11T06:04:02.411Z,37.90
2018-11-11T06:06:31.326Z,38.03
2018-11-11T06:09:00.214Z,35.90
2018-11-11T06:11:29.106Z,37.80
2018-11-11T06:13:57.979Z,39.93
2018-11-11T06:16:26.825Z,36.87
2018-11-11T06:18:55.674Z,36.53
2018-11-11T06:21:24.544Z,33.47
2018-11-11T06:23:53.410Z,35.63
2018-11-11T06:26:22.275Z,34.57
2018-11-11T06:28:51.113Z,34.70
2018-11-11T06:31:19.969Z,34.00
2018-11-11T06:33:48.924Z,34.93
2018-11-11T06:36:17.748Z,31.60
2018-11-11T06:38:46.594Z,33.97
2018-11-11T06:41:15.483Z,33.50
2018-11-11T06:43:44.322Z,33.70
2018-11-11T06:46:13.186Z,33.13
2018-11-11T06:48:42.059Z,32.23
2018-11-11T06:51:10.958Z,32.33
2018-11-11T06:53:39.819Z,33.70
2018-11-11T06:56:08.710Z,34.27
2018-11-11T06:58:37.625Z,35.43
2018-11-11T07:01:06.587Z,33.73
2018-11-11T07:03:54.851Z,31.80
2018-11-11T07:06:24.072Z,31.80
2018-11-11T07:08:52.915Z,33.33
2018-11-11T07:11:21.806Z,32.63
2018-11-11T07:13:50.766Z,31.17
2018-11-11T07:16:19.586Z,33.77
2018-11-11T07:18:48.748Z,30.73
2018-11-11T07:21:18.228Z,29.90
2018-11-11T07:23:48.069Z,31.70
2018-11-11T07:26:16.842Z,32.63
2018-11-11T07:28:45.788Z,33.97
2018-11-11T07:31:14.674Z,31.60
2018-11-11T07:33:43.542Z,32.67
2018-11-11T07:36:12.594Z,30.67
2018-11-11T07:38:41.318Z,31.73
2018-11-11T07:41:10.230Z,32.00
2018-11-11T07:43:39.350Z,31.63
2018-11-11T07:46:08.332Z,32.27
2018-11-11T07:48:37.311Z,32.37
2018-11-11T07:51:06.619Z,28.97
2018-11-11T07:53:35.474Z,32.37
2018-11-11T07:56:04.502Z,34.03
2018-11-11T07:58:34.054Z,29.37
2018-11-11T08:01:02.899Z,33.33
2018-11-11T08:03:31.783Z,32.17
2018-11-11T08:06:00.643Z,30.83
2018-11-11T08:08:29.463Z,32.13
2018-11-11T08:11:15.650Z,33.00
2018-11-11T08:13:44.518Z,126.47
2018-11-11T08:16:13.339Z,41.13
2018-11-11T08:18:42.246Z,45.27
2018-11-11T08:21:11.231Z,40.07
2018-11-11T08:23:40.215Z,44.17
2018-11-11T08:26:09.187Z,32.70
2018-11-11T08:28:38.106Z,31.63
2018-11-11T08:31:07.086Z,35.33
2018-11-11T08:33:36.058Z,37.37
2018-11-11T08:36:05.151Z,34.43
2018-11-11T08:38:34.277Z,33.83
2018-11-11T08:41:03.291Z,31.47
2018-11-11T08:43:32.282Z,34.03
2018-11-11T08:46:01.224Z,34.87
2018-11-11T08:48:30.147Z,32.50
2018-11-11T08:50:59.087Z,31.47
2018-11-11T08:53:28.023Z,31.13
2018-11-11T08:55:56.956Z,28.37
2018-11-11T08:58:25.877Z,30.50
2018-11-11T09:00:54.804Z,33.03
2018-11-11T09:03:23.803Z,30.20
2018-11-11T09:05:52.747Z,32.60
2018-11-11T09:08:21.639Z,32.03
2018-11-11T09:10:50.534Z,33.23
2018-11-11T09:13:19.454Z,32.20
2018-11-11T09:15:48.543Z,30.53
2018-11-11T09:18:17.566Z,29.60
2018-11-11T09:20:46.551Z,29.40
2018-11-11T09:23:15.466Z,31.30
2018-11-11T09:25:44.318Z,30.10
2018-11-11T09:28:13.253Z,29.33
2018-11-11T09:30:42.195Z,30.33
2018-11-11T09:33:11.171Z,30.80
2018-11-11T09:35:40.119Z,29.03
2018-11-11T09:38:09.002Z,30.57
2018-11-11T09:40:37.962Z,29.00
2018-11-11T09:43:07.160Z,30.47
2018-11-11T09:45:36.155Z,31.83
2018-11-11T09:48:05.300Z,31.80
2018-11-11T09:51:37.454Z,32.57
2018-11-11T09:54:07.055Z,32.30
2018-11-11T09:56:36.253Z,32.40
2018-11-11T09:59:05.428Z,32.47
2018-11-11T10:01:34.392Z,31.47
2018-11-11T10:04:10.406Z,32.67
2018-11-11T10:07:47.299Z,38.60
2018-11-11T10:10:20.870Z,36.00
2018-11-11T10:13:26.351Z,32.43
2018-11-11T10:16:00.471Z,36.23
2018-11-11T10:18:36.415Z,34.53
2018-11-11T10:21:24.413Z,33.00
2018-11-11T10:24:11.823Z,34.37
2018-11-11T10:26:46.054Z,32.80
2018-11-11T10:29:19.582Z,33.17
2018-11-11T10:31:53.726Z,34.20
2018-11-11T10:34:30.776Z,29.70
2018-11-11T10:37:05.624Z,32.77
2018-11-11T10:39:53.338Z,32.43
2018-11-11T10:44:32.745Z,32.37
2018-11-11T10:47:03.641Z,31.03
2018-11-11T10:49:38.740Z,32.13
2018-11-11T10:52:07.648Z,33.93
2018-11-11T10:54:36.598Z,32.30
2018-11-11T10:57:05.507Z,33.20
2018-11-11T10:59:34.444Z,31.30
2018-11-11T11:02:08.716Z,32.50
2018-11-11T11:04:43.226Z,32.40
2018-11-11T11:07:12.184Z,34.37
2018-11-11T11:09:41.023Z,32.03
2018-11-11T11:12:09.938Z,31.77
2018-11-11T11:14:38.812Z,31.77
2018-11-11T11:17:07.770Z,32.97
2018-11-11T11:19:36.727Z,33.70
2018-11-11T11:22:06.239Z,34.20
2018-11-11T11:24:35.144Z,33.80
2018-11-11T11:27:04.213Z,33.27
2018-11-11T11:29:33.067Z,32.07
2018-11-11T11:32:01.994Z,33.77
2018-11-11T11:34:30.868Z,31.20
2018-11-11T11:36:59.768Z,32.37
2018-11-11T11:39:28.650Z,31.37
2018-11-11T11:41:57.560Z,31.17
2018-11-11T11:44:26.473Z,30.57
2018-11-11T11:46:55.582Z,33.03
2018-11-11T11:49:24.570Z,28.83
2018-11-11T11:51:53.551Z,31.47
2018-11-11T11:54:22.383Z,33.10
2018-11-11T11:56:51.296Z,31.50
2018-11-11T11:59:20.174Z,31.60
2018-11-11T12:01:49.074Z,30.23
2018-11-11T12:04:17.943Z,32.03
2018-11-11T12:06:46.862Z,29.40
2018-11-11T12:09:15.802Z,32.20
2018-11-11T12:11:45.662Z,35.07
2018-11-11T12:14:14.550Z,33.47
2018-11-11T12:16:43.458Z,33.20
2018-11-11T12:19:12.331Z,30.90
2018-11-11T12:21:41.222Z,33.20
2018-11-11T12:24:10.094Z,32.33
2018-11-11T12:26:38.985Z,30.13
2018-11-11T12:29:07.890Z,31.50
2018-11-11T12:31:36.738Z,35.60
2018-11-11T12:34:06.194Z,35.17
2018-11-11T12:36:35.267Z,33.47
2018-11-11T12:39:06.107Z,29.03
2018-11-11T12:41:35.001Z,29.80
2018-11-11T12:44:03.926Z,29.10
2018-11-11T12:46:32.920Z,28.13
2018-11-11T12:49:01.911Z,29.60
2018-11-11T12:51:31.025Z,25.83
2018-11-11T12:53:59.993Z,26.83
2018-11-11T12:56:28.963Z,25.50
2018-11-11T12:58:58.178Z,26.87
2018-11-11T13:01:27.134Z,25.90
2018-11-11T13:03:56.122Z,28.60
2018-11-11T13:06:25.304Z,27.57
2018-11-11T13:08:54.193Z,24.77
2018-11-11T13:11:23.199Z,24.77
2018-11-11T13:14:55.461Z,24.60
2018-11-11T13:17:24.371Z,24.43
2018-11-11T13:19:53.327Z,23.40
2018-11-11T13:22:22.401Z,23.00
2018-11-11T13:24:51.294Z,26.60
2018-11-11T13:27:20.237Z,22.63
2018-11-11T13:29:49.129Z,26.07
2018-11-11T13:32:18.026Z,24.00
2018-11-11T13:34:46.911Z,23.63
2018-11-11T13:37:15.823Z,21.80
2018-11-11T13:39:44.789Z,21.80
2018-11-11T13:42:13.667Z,21.97
2018-11-11T13:44:42.597Z,20.53
2018-11-11T13:47:11.567Z,28.63
2018-11-11T13:49:40.455Z,33.93
2018-11-11T13:52:09.314Z,22.70
2018-11-11T13:54:38.306Z,34.07
2018-11-11T13:57:08.301Z,20.23
2018-11-11T13:59:37.260Z,21.50
2018-11-11T14:02:06.468Z,21.13
2018-11-11T14:04:35.535Z,22.17
2018-11-11T14:07:04.442Z,19.77
2018-11-11T14:09:33.427Z,20.20
2018-11-11T14:12:02.319Z,19.27
2018-11-11T14:14:31.313Z,21.33
2018-11-11T14:17:00.355Z,20.80
2018-11-11T14:19:29.328Z,20.07
2018-11-11T14:21:58.139Z,21.13
2018-11-11T14:24:27.052Z,23.13
2018-11-11T14:26:56.053Z,18.90
2018-11-11T14:29:24.964Z,19.03
2018-11-11T14:31:53.908Z,18.57
2018-11-11T14:34:22.869Z,19.40
2018-11-11T14:36:51.830Z,20.17
2018-11-11T14:39:20.835Z,19.07
2018-11-11T14:41:49.795Z,20.00
2018-11-11T14:44:18.684Z,19.23
2018-11-11T14:46:47.529Z,21.97
2018-11-11T14:49:16.498Z,21.70
2018-11-11T14:51:45.495Z,22.80
2018-11-11T14:54:14.443Z,23.03
2018-11-11T14:56:43.348Z,27.10
2018-11-11T14:59:12.242Z,27.53
2018-11-11T15:01:41.184Z,28.30
2018-11-11T15:04:10.014Z,41.63
2018-11-11T15:06:38.857Z,36.87
2018-11-11T15:09:10.715Z,30.33
2018-11-11T15:11:40.110Z,37.33
2018-11-11T15:14:09.215Z,44.87
2018-11-11T15:16:38.251Z,36.73
2018-11-11T15:19:07.246Z,30.73
2018-11-11T15:21:36.134Z,29.00
2018-11-11T15:24:05.536Z,27.33
2018-11-11T15:26:34.398Z,24.60
2018-11-11T15:29:03.318Z,23.37
2018-11-11T15:31:32.214Z,20.53
2018-11-11T15:34:01.088Z,21.40
2018-11-11T15:36:30.015Z,22.57
2018-11-11T15:38:58.954Z,19.00
2018-11-11T15:41:27.902Z,19.67
2018-11-11T15:43:56.871Z,20.50
2018-11-11T15:46:25.836Z,17.50
2018-11-11T15:48:54.775Z,20.30
2018-11-11T15:51:23.686Z,18.77
2018-11-11T15:53:52.638Z,18.07
2018-11-11T15:56:21.593Z,17.37
2018-11-11T15:58:50.488Z,18.50
2018-11-11T16:01:19.395Z,17.07
2018-11-11T16:03:48.298Z,18.37
2018-11-11T16:06:17.293Z,17.37
2018-11-11T16:08:46.307Z,22.67
2018-11-11T16:11:15.346Z,37.07
2018-11-11T16:13:44.247Z,30.10
2018-11-11T16:16:13.108Z,38.83
2018-11-11T16:18:42.149Z,29.40
2018-11-11T16:21:11.012Z,23.63
2018-11-11T16:23:39.991Z,20.17
2018-11-11T16:26:08.893Z,19.43
2018-11-11T16:28:37.842Z,18.90
2018-11-11T16:31:06.819Z,18.23
2018-11-11T16:33:35.779Z,20.30
2018-11-11T16:36:04.971Z,16.90
2018-11-11T16:38:33.859Z,17.10
2018-11-11T16:41:02.792Z,18.07
2018-11-11T16:43:31.670Z,20.27
2018-11-11T16:46:00.642Z,18.13
2018-11-11T16:48:29.499Z,18.37
2018-11-11T16:50:58.391Z,21.30
2018-11-11T16:53:27.384Z,19.47
2018-11-11T16:55:56.283Z,18.83
2018-11-11T16:58:25.182Z,18.87
2018-11-11T17:00:54.124Z,17.53
2018-11-11T17:03:23.050Z,17.13
2018-11-11T17:05:51.986Z,18.00
2018-11-11T17:08:20.931Z,16.90
2018-11-11T17:10:50.012Z,17.90
2018-11-11T17:13:18.938Z,17.10
2018-11-11T17:15:47.864Z,17.57
2018-11-11T17:18:17.254Z,17.67
2018-11-11T17:20:45.982Z,17.40
2018-11-11T17:23:14.607Z,15.17
2018-11-11T17:25:43.322Z,15.67
2018-11-11T17:28:12.329Z,17.00
2018-11-11T17:30:41.087Z,18.30
2018-11-11T17:33:09.993Z,17.47
2018-11-11T17:35:38.642Z,17.73
2018-11-11T17:38:07.361Z,17.27
2018-11-11T17:40:36.154Z,15.83
2018-11-11T17:43:05.198Z,15.43
2018-11-11T17:45:33.933Z,15.93
2018-11-11T17:48:02.693Z,15.90
2018-11-11T17:50:32.585Z,15.23
2018-11-11T17:53:02.574Z,17.37
2018-11-11T17:55:31.607Z,16.33
2018-11-11T17:58:00.321Z,16.90
2018-11-11T18:00:30.186Z,15.50
2018-11-11T18:02:59.844Z,14.93
2018-11-11T18:05:29.701Z,14.77
2018-11-11T18:07:58.712Z,17.87
2018-11-11T18:10:28.072Z,16.93
2018-11-11T18:12:56.989Z,15.20
2018-11-11T18:15:27.814Z,15.50
2018-11-11T18:17:56.563Z,13.47
2018-11-11T18:20:28.653Z,14.93
2018-11-11T18:22:58.386Z,14.07
2018-11-11T18:25:27.135Z,15.10
2018-11-11T18:27:55.943Z,13.77
2018-11-11T18:30:26.980Z,15.10
2018-11-11T18:32:55.721Z,15.37
2018-11-11T18:35:24.447Z,14.30
2018-11-11T18:37:53.444Z,14.77
2018-11-11T18:40:23.558Z,13.67
2018-11-11T18:42:52.308Z,14.63
2018-11-11T18:45:22.379Z,14.80
2018-11-11T18:47:51.598Z,13.27
2018-11-11T18:50:22.617Z,13.77
2018-11-11T18:52:51.348Z,14.97
2018-11-11T18:55:20.034Z,14.80
2018-11-11T18:57:48.877Z,14.83
2018-11-11T19:00:23.070Z,14.20
2018-11-11T19:02:52.606Z,14.43
2018-11-11T19:05:21.929Z,14.00
2018-11-11T19:07:50.862Z,14.67
2018-11-11T19:10:21.128Z,13.33
2018-11-11T19:12:51.056Z,14.70
2018-11-11T19:15:20.297Z,14.30
2018-11-11T19:17:49.697Z,13.80
2018-11-11T19:20:19.754Z,13.57
2018-11-11T19:22:48.607Z,12.60
2018-11-11T19:25:18.828Z,14.27
2018-11-11T19:27:48.832Z,13.60
2018-11-11T19:30:18.724Z,13.13
2018-11-11T19:32:48.343Z,12.80
2018-11-11T19:35:17.566Z,11.90
2018-11-11T19:37:47.871Z,12.93
2018-11-11T19:40:18.190Z,12.53
2018-11-11T19:42:47.100Z,12.70
2018-11-11T19:45:18.026Z,12.17
2018-11-11T19:47:46.777Z,12.97
2018-11-11T19:50:16.825Z,12.60
2018-11-11T19:52:46.824Z,13.43
2018-11-11T19:55:16.625Z,12.10
2018-11-11T19:57:45.362Z,13.97
2018-11-11T20:00:17.616Z,12.70
2018-11-11T20:02:47.521Z,12.87
2018-11-11T20:05:16.859Z,12.63
2018-11-11T20:14:44.229Z,14.37
2018-11-11T20:17:13.203Z,13.50
2018-11-11T20:19:42.055Z,14.60
2018-11-11T20:22:10.797Z,13.00
2018-11-11T20:24:39.623Z,14.37
2018-11-11T20:27:08.369Z,13.37
2018-11-11T20:29:37.166Z,13.97
2018-11-11T20:32:05.962Z,14.77
2018-11-11T20:34:34.630Z,14.60
2018-11-11T20:37:03.456Z,14.00
2018-11-11T20:39:32.291Z,14.27
2018-11-11T20:42:01.063Z,13.40
2018-11-11T20:44:29.804Z,16.07
2018-11-11T20:46:58.570Z,15.80
2018-11-11T20:49:27.354Z,16.37
2018-11-11T20:51:56.146Z,14.40
2018-11-11T20:54:25.111Z,15.83
2018-11-11T20:56:53.929Z,14.60
2018-11-11T20:59:22.687Z,15.90
2018-11-11T21:01:51.499Z,15.70
2018-11-11T21:04:20.287Z,13.80
2018-11-11T21:06:49.093Z,15.30
2018-11-11T21:09:17.866Z,14.63
2018-11-11T21:11:46.598Z,15.77
2018-11-11T21:14:15.321Z,15.37
2018-11-11T21:16:44.128Z,14.20
2018-11-11T21:19:13.629Z,15.07
2018-11-11T21:21:42.328Z,14.30
2018-11-11T21:24:11.083Z,16.20
2018-11-11T21:26:39.858Z,16.80
2018-11-11T21:29:08.645Z,18.00
2018-11-11T21:31:37.456Z,16.17
2018-11-11T21:34:06.172Z,14.40
2018-11-11T21:36:34.926Z,15.60
2018-11-11T21:39:04.327Z,15.37
2018-11-11T21:41:33.226Z,15.90
2018-11-11T21:44:02.050Z,15.77
2018-11-11T21:46:30.782Z,15.40
2018-11-11T21:48:59.589Z,15.63
2018-11-11T21:51:29.378Z,16.30
2018-11-11T21:53:58.170Z,15.93
2018-11-11T21:56:26.971Z,15.20
2018-11-11T21:58:55.751Z,15.80
2018-11-11T22:01:24.590Z,14.97
2018-11-11T22:03:53.339Z,15.17
2018-11-11T22:06:22.107Z,14.33
2018-11-11T22:08:50.980Z,16.40
2018-11-11T22:11:19.683Z,14.60
2018-11-11T22:13:48.486Z,15.07
2018-11-11T22:16:17.254Z,15.00
2018-11-11T22:18:46.079Z,15.57
2018-11-11T22:22:18.290Z,14.97
2018-11-11T22:24:46.986Z,15.50
2018-11-11T22:27:15.789Z,14.83
2018-11-11T22:29:44.598Z,14.10
2018-11-11T22:32:13.373Z,16.30
2018-11-11T22:34:42.166Z,13.07
2018-11-11T22:37:10.954Z,16.30
2018-11-11T22:39:39.746Z,16.17
2018-11-11T22:42:08.536Z,14.60
2018-11-11T22:44:37.372Z,15.37
2018-11-11T22:47:06.119Z,14.90
2018-11-11T22:49:34.841Z,15.20
2018-11-11T22:52:03.493Z,14.73
2018-11-11T22:54:32.213Z,15.97
2018-11-11T22:57:00.958Z,15.00
2018-11-11T22:59:29.805Z,14.73
2018-11-11T23:01:59.514Z,15.30
2018-11-11T23:04:28.274Z,15.90
2018-11-11T23:06:56.982Z,14.67
2018-11-11T23:09:25.762Z,15.93
2018-11-11T23:11:54.466Z,15.13
2018-11-11T23:14:23.233Z,16.30
2018-11-11T23:16:51.942Z,15.97
2018-11-11T23:19:20.732Z,15.63
2018-11-11T23:21:49.478Z,15.30
2018-11-11T23:24:18.241Z,16.20
2018-11-11T23:26:46.976Z,17.40
2018-11-11T23:29:15.870Z,17.33
2018-11-11T23:31:45.221Z,15.53
2018-11-11T23:34:13.963Z,17.40
2018-11-11T23:36:43.779Z,15.90
2018-11-11T23:39:12.535Z,16.63
2018-11-11T23:41:41.227Z,16.40
2018-11-11T23:44:10.979Z,17.60
2018-11-11T23:46:39.793Z,17.13
2018-11-11T23:49:09.233Z,15.23
2018-11-11T23:51:38.007Z,18.10
2018-11-11T23:54:06.933Z,17.47
2018-11-11T23:56:35.910Z,17.30
2018-11-11T23:59:04.726Z,17.53
